Fernando Pessoa — CSKQ — position and weather

sailwx.info

Track history (hours):
 
Tides and Currents Weather Stations Pressure Air Temp Water Temp Dewpoint Dewpoint Depression Visibility Wind Speed Wind Dir Waves Ship Positions

Fernando Pessoa

Last reported at 2015-Sep-02 05:34 UTC. Time now 2015-Sep-02 06:27 UTC.
Position N 38°42' W 009°08'.

Length 49 m.

MMSI: 263701470.

Date/timePositionNaut miles runAvg speedWind from/ knotsBaromVisibWave heightAir tempDewpointWater temp
2015-Sep-02 05:34N 38°42' W 009°08'0 0.0
2015-Sep-02 04:33N 38°42' W 009°08'4 4.2
2015-Sep-02 03:33N 38°39' W 009°05'0 0.0
2015-Sep-02 02:33N 38°39' W 009°05'0 0.0
2015-Sep-02 01:33N 38°39' W 009°05'0 0.5
2015-Sep-02 00:33N 38°39' W 009°05'0 0.1
2015-Sep-01 23:33N 38°39' W 009°05'0 0.2
2015-Sep-01 22:33N 38°39' W 009°05'1 1.4
2015-Sep-01 21:33N 38°40' W 009°07'1 0.5
2015-Sep-01 20:33N 38°40' W 009°06'1 1.1
2015-Sep-01 19:32N 38°39' W 009°05'0 0.0
2015-Sep-01 18:33N 38°39' W 009°05'1 1.2
2015-Sep-01 17:33N 38°40' W 009°06'3 2.7
2015-Sep-01 16:34N 38°42' W 009°08'4 3.6
2015-Sep-01 15:33N 38°39' W 009°05'  
2015-Aug-27 20:32N 38°39' W 009°05'0 0.0
2015-Aug-27 19:33N 38°39' W 009°05'4 3.7
2015-Aug-27 18:33N 38°42' W 009°08'0 0.3
2015-Aug-27 17:33N 38°42' W 009°08'3 2.5
2015-Aug-27 16:33N 38°40' W 009°07'2 1.5
2015-Aug-27 15:33N 38°39' W 009°05'1 0.8
2015-Aug-27 14:33N 38°40' W 009°06'1 1.2
2015-Aug-27 13:33N 38°39' W 009°05'0 0.0
2015-Aug-27 12:33N 38°39' W 009°05'0 0.0
2015-Aug-27 11:33N 38°39' W 009°05'0 0.0
2015-Aug-27 10:32N 38°39' W 009°05'0 0.1
2015-Aug-27 09:30N 38°39' W 009°05'4 4.3
2015-Aug-27 08:33N 38°42' W 009°08'0 0.0
2015-Aug-27 07:33N 38°42' W 009°08'3 2.7
2015-Aug-27 06:33N 38°40' W 009°07'  
2015-Aug-24 09:07N 38°39' W 009°05'0 0.0
2015-Aug-23 10:22N 38°39' W 009°05'1 1.5
2015-Aug-23 09:34N 38°40' W 009°06'0 0.0
2015-Aug-23 08:33N 38°40' W 009°06'0 0.1
2015-Aug-23 07:33N 38°40' W 009°06'0 0.3
2015-Aug-23 06:34N 38°40' W 009°07'1 0.9
2015-Aug-23 05:34N 38°41' W 009°07'  
Track history (hours):
 
Tides and Currents Weather Stations Pressure Air Temp Water Temp Dewpoint Dewpoint Depression Visibility Wind Speed Wind Dir Waves Ship Positions

Fernando Pessoa

Last reported at 2015-Sep-02 05:34 UTC. Time now 2015-Sep-02 06:27 UTC.
Position N 38°42' W 009°08'.

Length 49 m.

MMSI: 263701470.

Date/timePositionNaut miles runAvg speedWind from/ knotsBaromVisibWave heightAir tempDewpointWater temp
2015-Sep-02 05:34N 38°42' W 009°08'0 0.0
2015-Sep-02 04:33N 38°42' W 009°08'4 4.2
2015-Sep-02 03:33N 38°39' W 009°05'0 0.0
2015-Sep-02 02:33N 38°39' W 009°05'0 0.0
2015-Sep-02 01:33N 38°39' W 009°05'0 0.5
2015-Sep-02 00:33N 38°39' W 009°05'0 0.1
2015-Sep-01 23:33N 38°39' W 009°05'0 0.2
2015-Sep-01 22:33N 38°39' W 009°05'1 1.4
2015-Sep-01 21:33N 38°40' W 009°07'1 0.5
2015-Sep-01 20:33N 38°40' W 009°06'1 1.1
2015-Sep-01 19:32N 38°39' W 009°05'0 0.0
2015-Sep-01 18:33N 38°39' W 009°05'1 1.2
2015-Sep-01 17:33N 38°40' W 009°06'3 2.7
2015-Sep-01 16:34N 38°42' W 009°08'4 3.6
2015-Sep-01 15:33N 38°39' W 009°05'  
2015-Aug-27 20:32N 38°39' W 009°05'0 0.0
2015-Aug-27 19:33N 38°39' W 009°05'4 3.7
2015-Aug-27 18:33N 38°42' W 009°08'0 0.3
2015-Aug-27 17:33N 38°42' W 009°08'3 2.5
2015-Aug-27 16:33N 38°40' W 009°07'2 1.5
2015-Aug-27 15:33N 38°39' W 009°05'1 0.8
2015-Aug-27 14:33N 38°40' W 009°06'1 1.2
2015-Aug-27 13:33N 38°39' W 009°05'0 0.0
2015-Aug-27 12:33N 38°39' W 009°05'0 0.0
2015-Aug-27 11:33N 38°39' W 009°05'0 0.0
2015-Aug-27 10:32N 38°39' W 009°05'0 0.1
2015-Aug-27 09:30N 38°39' W 009°05'4 4.3
2015-Aug-27 08:33N 38°42' W 009°08'0 0.0
2015-Aug-27 07:33N 38°42' W 009°08'3 2.7
2015-Aug-27 06:33N 38°40' W 009°07'  
2015-Aug-24 09:07N 38°39' W 009°05'0 0.0
2015-Aug-23 10:22N 38°39' W 009°05'1 1.5
2015-Aug-23 09:34N 38°40' W 009°06'0 0.0
2015-Aug-23 08:33N 38°40' W 009°06'0 0.1
2015-Aug-23 07:33N 38°40' W 009°06'0 0.3
2015-Aug-23 06:34N 38°40' W 009°07'1 0.9
2015-Aug-23 05:34N 38°41' W 009°07'  

Dump ship's entire track history